createdAt,value
2023-02-21T00:00:17.639Z,27.97
2023-02-21T00:03:07.386Z,27.99
2023-02-21T00:05:55.920Z,28.02
2023-02-21T00:08:44.547Z,27.57
2023-02-21T00:11:32.893Z,28.09
2023-02-21T00:14:20.990Z,28.00
2023-02-21T00:17:09.624Z,28.21
2023-02-21T00:19:58.042Z,28.24
2023-02-21T00:22:46.049Z,28.27
2023-02-21T00:25:34.044Z,28.28
2023-02-21T00:28:22.817Z,28.30
2023-02-21T00:31:11.232Z,28.31
2023-02-21T00:34:00.063Z,28.33
2023-02-21T00:36:48.884Z,28.36
2023-02-21T00:39:37.120Z,28.37
2023-02-21T00:42:25.617Z,28.37
2023-02-21T00:45:13.929Z,28.31
2023-02-21T00:48:02.232Z,28.30
2023-02-21T00:50:51.549Z,28.31
2023-02-21T00:53:39.991Z,28.31
2023-02-21T00:56:28.319Z,28.33
2023-02-21T00:59:16.397Z,28.34
2023-02-21T01:02:04.725Z,28.35
2023-02-21T01:04:53.146Z,28.36
2023-02-21T01:07:41.761Z,28.37
2023-02-21T01:10:30.036Z,28.37
2023-02-21T01:13:18.488Z,28.39
2023-02-21T01:16:06.781Z,28.40
2023-02-21T01:18:55.337Z,28.42
2023-02-21T01:21:43.722Z,28.43
2023-02-21T01:24:34.419Z,28.44
2023-02-21T01:27:22.645Z,28.45
2023-02-21T01:30:10.894Z,28.46
2023-02-21T01:32:59.218Z,28.47
2023-02-21T01:35:48.433Z,28.49
2023-02-21T01:38:37.089Z,28.50
2023-02-21T01:41:25.656Z,28.52
2023-02-21T01:44:21.485Z,28.54
2023-02-21T01:47:10.368Z,28.57
2023-02-21T01:50:00.643Z,28.58
2023-02-21T01:52:49.222Z,28.60
2023-02-21T01:55:37.563Z,28.61
2023-02-21T01:58:26.255Z,28.61
2023-02-21T02:01:15.057Z,28.64
2023-02-21T02:04:05.164Z,28.67
2023-02-21T02:06:54.858Z,28.68
2023-02-21T02:09:43.325Z,28.70
2023-02-21T02:12:31.124Z,28.73
2023-02-21T02:15:07.560Z,28.74
2023-02-21T02:17:52.841Z,28.77
2023-02-21T02:20:25.638Z,28.78
2023-02-21T02:23:18.429Z,28.81
2023-02-21T02:26:06.618Z,28.82
2023-02-21T02:28:36.846Z,28.85
2023-02-21T02:31:27.630Z,28.88
2023-02-21T02:34:11.269Z,28.91
2023-02-21T02:36:45.647Z,28.92
2023-02-21T02:39:15.650Z,28.95
2023-02-21T02:41:48.768Z,28.98
2023-02-21T02:44:18.933Z,28.99
2023-02-21T02:46:50.942Z,29.03
2023-02-21T02:49:24.615Z,29.04
2023-02-21T02:51:55.029Z,29.07
2023-02-21T02:54:27.953Z,29.09
2023-02-21T02:57:00.396Z,29.10
2023-02-21T02:59:34.744Z,29.14
2023-02-21T03:02:04.936Z,29.16
2023-02-21T03:04:53.212Z,29.17
2023-02-21T03:07:27.186Z,29.20
2023-02-21T03:10:15.664Z,29.24
2023-02-21T03:12:53.506Z,29.26
2023-02-21T03:15:34.472Z,29.29
2023-02-21T03:18:23.169Z,29.30
2023-02-21T03:20:56.679Z,29.34
2023-02-21T03:23:29.052Z,29.37
2023-02-21T03:26:01.308Z,29.39
2023-02-21T03:28:32.421Z,29.42
2023-02-21T03:31:05.529Z,29.43
2023-02-21T03:33:35.662Z,29.46
2023-02-21T03:36:10.653Z,29.49
2023-02-21T03:38:41.505Z,29.52
2023-02-21T03:41:13.064Z,29.54
2023-02-21T03:43:43.342Z,29.57
2023-02-21T03:46:14.497Z,29.59
2023-02-21T03:48:45.005Z,29.62
2023-02-21T03:51:22.810Z,29.65
2023-02-21T03:53:53.469Z,29.67
2023-02-21T03:56:41.525Z,29.68
2023-02-21T03:59:27.632Z,29.72
2023-02-21T04:01:58.338Z,29.75
2023-02-21T04:04:32.069Z,29.77
2023-02-21T04:07:15.100Z,29.80
2023-02-21T04:09:46.191Z,29.82
2023-02-21T04:12:19.944Z,29.86
2023-02-21T04:14:50.115Z,29.89
2023-02-21T04:17:20.513Z,29.92
2023-02-21T04:19:51.313Z,29.95
2023-02-21T04:22:21.696Z,29.97
2023-02-21T04:24:53.558Z,30.01
2023-02-21T04:27:25.950Z,30.03
2023-02-21T04:29:59.162Z,30.06
2023-02-21T04:32:29.211Z,30.09
2023-02-21T04:34:59.569Z,30.11
2023-02-21T04:37:29.828Z,30.14
2023-02-21T04:40:01.244Z,30.16
2023-02-21T04:42:33.788Z,30.19
2023-02-21T04:45:04.594Z,30.21
2023-02-21T04:47:34.739Z,30.24
2023-02-21T04:50:05.215Z,30.27
2023-02-21T04:52:35.264Z,30.28
2023-02-21T04:55:05.367Z,30.31
2023-02-21T04:57:35.361Z,30.33
2023-02-21T05:00:08.700Z,30.34
2023-02-21T05:02:38.811Z,30.36
2023-02-21T05:05:09.445Z,30.38
2023-02-21T05:07:39.454Z,30.39
2023-02-21T05:10:11.110Z,30.42
2023-02-21T05:12:41.415Z,30.43
2023-02-21T05:15:12.214Z,30.44
2023-02-21T05:17:42.622Z,30.46
2023-02-21T05:20:13.529Z,30.48
2023-02-21T05:22:44.157Z,30.51
2023-02-21T05:25:24.659Z,30.54
2023-02-21T05:27:55.688Z,30.53
2023-02-21T05:30:26.057Z,30.55
2023-02-21T05:32:56.153Z,30.56
2023-02-21T05:35:26.175Z,30.58
2023-02-21T05:37:56.296Z,30.59
2023-02-21T05:40:26.333Z,30.61
2023-02-21T05:42:56.732Z,30.61
2023-02-21T05:45:27.102Z,30.27
2023-02-21T05:48:01.562Z,30.64
2023-02-21T05:50:31.836Z,30.66
2023-02-21T05:53:02.519Z,30.68
2023-02-21T05:55:33.168Z,30.72
2023-02-21T05:58:03.239Z,30.73
2023-02-21T06:00:33.815Z,30.77
2023-02-21T06:03:04.983Z,30.78
2023-02-21T06:05:35.146Z,30.81
2023-02-21T06:08:05.322Z,30.85
2023-02-21T06:10:35.632Z,30.86
2023-02-21T06:13:05.700Z,30.89
2023-02-21T06:15:35.792Z,30.91
2023-02-21T06:18:05.921Z,30.94
2023-02-21T06:20:35.948Z,30.95
2023-02-21T06:23:05.933Z,30.97
2023-02-21T06:25:36.177Z,30.99
2023-02-21T06:28:06.625Z,31.02
2023-02-21T06:30:36.790Z,31.04
2023-02-21T06:33:06.830Z,31.06
2023-02-21T06:35:36.945Z,31.07
2023-02-21T06:38:06.955Z,31.10
2023-02-21T06:40:36.981Z,31.10
2023-02-21T06:43:07.153Z,31.12
2023-02-21T06:45:37.336Z,31.14
2023-02-21T06:48:07.658Z,31.16
2023-02-21T06:50:38.123Z,31.19
2023-02-21T06:53:08.172Z,31.21
2023-02-21T06:55:38.280Z,31.23
2023-02-21T06:58:08.348Z,31.23
2023-02-21T07:00:38.370Z,31.25
2023-02-21T07:03:08.457Z,31.27
2023-02-21T07:05:40.013Z,31.28
2023-02-21T07:08:10.234Z,31.31
2023-02-21T07:10:40.490Z,31.33
2023-02-21T07:13:10.977Z,31.34
2023-02-21T07:15:41.053Z,31.35
2023-02-21T07:18:11.324Z,31.37
2023-02-21T07:20:41.787Z,31.38
2023-02-21T07:23:11.974Z,31.40
2023-02-21T07:25:42.619Z,31.42
2023-02-21T07:28:13.473Z,31.43
2023-02-21T07:30:43.986Z,31.46
2023-02-21T07:33:14.222Z,31.47
2023-02-21T07:35:44.446Z,31.50
2023-02-21T07:38:24.627Z,31.52
2023-02-21T07:41:01.290Z,31.55
2023-02-21T07:43:32.601Z,31.58
2023-02-21T07:46:03.202Z,31.59
2023-02-21T07:48:33.257Z,31.61
2023-02-21T07:51:03.301Z,31.63
2023-02-21T07:53:33.341Z,31.64
2023-02-21T07:56:03.585Z,31.66
2023-02-21T07:58:33.941Z,31.68
2023-02-21T08:01:04.790Z,31.69
2023-02-21T08:03:35.071Z,31.73
2023-02-21T08:06:05.702Z,31.35
2023-02-21T08:08:35.745Z,31.76
2023-02-21T08:11:06.536Z,31.78
2023-02-21T08:13:36.559Z,31.78
2023-02-21T08:16:06.785Z,31.80
2023-02-21T08:18:36.966Z,31.82
2023-02-21T08:21:10.784Z,31.85
2023-02-21T08:23:41.304Z,31.85
2023-02-21T08:26:11.390Z,31.88
2023-02-21T08:28:41.405Z,31.91
2023-02-21T08:31:11.534Z,31.92
2023-02-21T08:33:41.824Z,31.96
2023-02-21T08:36:12.193Z,31.98
2023-02-21T08:38:42.537Z,32.01
2023-02-21T08:41:12.830Z,32.05
2023-02-21T08:43:43.254Z,32.07
2023-02-21T08:46:13.326Z,32.10
2023-02-21T08:48:44.292Z,32.12
2023-02-21T08:51:14.937Z,32.15
2023-02-21T08:53:45.311Z,32.19
2023-02-21T08:56:19.950Z,32.23
2023-02-21T08:58:50.449Z,32.25
2023-02-21T09:01:20.889Z,32.28
2023-02-21T09:03:51.126Z,32.32
2023-02-21T09:06:21.275Z,32.33
2023-02-21T09:08:51.272Z,32.36
2023-02-21T09:11:21.352Z,32.39
2023-02-21T09:13:51.750Z,32.21
2023-02-21T09:16:21.889Z,32.44
2023-02-21T09:19:00.421Z,32.18
2023-02-21T09:21:30.674Z,32.02
2023-02-21T09:24:00.870Z,31.97
2023-02-21T09:26:34.025Z,31.93
2023-02-21T09:29:04.090Z,31.86
2023-02-21T09:31:34.206Z,31.87
2023-02-21T09:34:04.318Z,31.82
2023-02-21T09:36:37.294Z,31.84
2023-02-21T09:39:08.048Z,31.82
2023-02-21T09:41:38.850Z,31.85
2023-02-21T09:44:09.262Z,31.79
2023-02-21T09:46:50.628Z,31.82
2023-02-21T09:49:23.628Z,31.84
2023-02-21T09:51:55.052Z,31.80
2023-02-21T09:54:35.564Z,31.82
2023-02-21T09:57:07.583Z,31.82
2023-02-21T09:59:37.629Z,31.82
2023-02-21T10:02:17.435Z,31.83
2023-02-21T10:04:59.561Z,31.83
2023-02-21T10:07:39.458Z,31.81
2023-02-21T10:10:29.855Z,31.82
2023-02-21T10:13:20.260Z,31.79
2023-02-21T10:15:50.322Z,31.78
2023-02-21T10:18:27.381Z,31.81
2023-02-21T10:21:00.978Z,31.82
2023-02-21T10:23:34.096Z,31.83
2023-02-21T10:26:08.842Z,31.81
2023-02-21T10:28:39.324Z,31.80
2023-02-21T10:31:38.668Z,31.77
2023-02-21T10:34:18.235Z,31.74
2023-02-21T10:36:49.482Z,31.72
2023-02-21T10:39:39.604Z,31.72
2023-02-21T10:42:15.206Z,31.71
2023-02-21T10:44:45.544Z,31.68
2023-02-21T10:47:25.709Z,31.66
2023-02-21T10:50:03.383Z,31.66
2023-02-21T10:52:38.989Z,31.67
2023-02-21T10:55:31.318Z,31.65
2023-02-21T10:58:12.111Z,31.65
2023-02-21T11:00:49.425Z,31.65
2023-02-21T11:03:22.302Z,31.65
2023-02-21T11:05:59.166Z,31.63
2023-02-21T11:08:43.756Z,31.63
2023-02-21T11:11:14.176Z,31.57
2023-02-21T11:13:45.661Z,31.55
2023-02-21T11:16:26.246Z,31.53
2023-02-21T11:19:09.341Z,31.51
2023-02-21T11:21:39.648Z,31.49
2023-02-21T11:24:09.989Z,31.49
2023-02-21T11:26:54.947Z,31.49
2023-02-21T11:29:27.428Z,31.46
2023-02-21T11:31:58.050Z,31.42
2023-02-21T11:34:30.926Z,31.39
2023-02-21T11:37:04.372Z,31.39
2023-02-21T11:39:35.297Z,31.37
2023-02-21T11:42:08.383Z,31.34
2023-02-21T11:44:42.618Z,31.35
2023-02-21T11:47:18.349Z,31.32
2023-02-21T11:50:02.925Z,31.30
2023-02-21T11:52:49.736Z,31.27
2023-02-21T11:55:26.347Z,31.28
2023-02-21T11:58:08.419Z,31.27
2023-02-21T12:00:39.980Z,31.25
2023-02-21T12:03:13.204Z,31.24
2023-02-21T12:05:56.273Z,31.20
2023-02-21T12:08:45.240Z,31.19
2023-02-21T12:11:35.518Z,31.16
2023-02-21T12:14:05.690Z,31.14
2023-02-21T12:16:44.560Z,31.13
2023-02-21T12:19:52.857Z,31.12
2023-02-21T12:22:42.486Z,31.13
2023-02-21T12:25:25.514Z,31.10
2023-02-21T12:28:03.263Z,31.08
2023-02-21T12:30:54.345Z,31.06
2023-02-21T12:33:43.100Z,31.06
2023-02-21T12:36:23.723Z,31.06
2023-02-21T12:38:58.562Z,31.05
2023-02-21T12:41:45.076Z,31.05
2023-02-21T12:44:17.955Z,31.04
2023-02-21T12:47:05.699Z,31.03
2023-02-21T12:49:45.838Z,31.02
2023-02-21T12:52:24.757Z,31.00
2023-02-21T12:54:54.890Z,30.97
2023-02-21T12:57:32.573Z,30.98
2023-02-21T13:00:09.421Z,30.96
2023-02-21T13:02:59.986Z,30.93
2023-02-21T13:05:47.142Z,30.91
2023-02-21T13:08:25.104Z,30.89
2023-02-21T13:11:16.725Z,30.87
2023-02-21T13:13:49.380Z,30.86
2023-02-21T13:16:25.587Z,30.84
2023-02-21T13:19:02.748Z,30.81
2023-02-21T13:21:52.802Z,30.80
2023-02-21T13:24:42.386Z,30.79
2023-02-21T13:27:26.076Z,30.77
2023-02-21T13:30:22.131Z,30.76
2023-02-21T13:32:59.556Z,30.75
2023-02-21T13:35:38.027Z,30.73
2023-02-21T13:38:16.993Z,30.29
2023-02-21T13:41:10.634Z,30.70
2023-02-21T13:43:55.568Z,30.71
2023-02-21T13:46:30.851Z,30.62
2023-02-21T13:49:23.919Z,30.54
2023-02-21T13:51:58.260Z,30.46
2023-02-21T13:54:30.482Z,30.42
2023-02-21T13:57:02.386Z,30.49
2023-02-21T13:59:37.970Z,30.55
2023-02-21T14:02:24.730Z,30.59
2023-02-21T14:04:58.306Z,30.63
2023-02-21T14:07:53.488Z,30.67
2023-02-21T14:10:45.237Z,30.70
2023-02-21T14:13:35.204Z,30.76
2023-02-21T14:16:19.942Z,30.77
2023-02-21T14:19:13.154Z,30.78
2023-02-21T14:21:48.622Z,30.64
2023-02-21T14:24:23.884Z,30.42
2023-02-21T14:27:04.172Z,30.22
2023-02-21T14:29:42.237Z,30.01
2023-02-21T14:32:12.686Z,29.83
2023-02-21T14:34:50.031Z,29.72
2023-02-21T14:37:39.607Z,29.63
2023-02-21T14:40:20.930Z,29.53
2023-02-21T14:43:11.001Z,29.43
2023-02-21T14:46:12.014Z,29.35
2023-02-21T14:49:05.656Z,29.24
2023-02-21T14:52:04.994Z,29.15
2023-02-21T14:54:46.750Z,29.11
2023-02-21T14:57:43.453Z,29.08
2023-02-21T15:00:25.294Z,29.02
2023-02-21T15:06:15.512Z,28.90
2023-02-21T15:08:53.359Z,28.83
2023-02-21T15:11:34.236Z,28.79
2023-02-21T15:14:26.867Z,28.71
2023-02-21T15:17:02.440Z,28.65
2023-02-21T15:19:38.602Z,28.60
2023-02-21T15:22:17.627Z,28.58
2023-02-21T15:25:02.057Z,28.59
2023-02-21T15:27:32.160Z,28.66
2023-02-21T15:30:15.171Z,28.67
2023-02-21T15:32:59.708Z,28.69
2023-02-21T15:35:42.042Z,28.68
2023-02-21T15:38:22.848Z,28.65
2023-02-21T15:40:57.108Z,28.64
2023-02-21T15:43:42.995Z,28.59
2023-02-21T15:46:16.752Z,28.56
2023-02-21T15:48:48.207Z,28.50
2023-02-21T15:51:28.304Z,28.45
2023-02-21T15:54:17.064Z,28.42
2023-02-21T15:56:47.378Z,28.38
2023-02-21T15:59:29.945Z,28.35
2023-02-21T16:02:20.191Z,28.33
2023-02-21T16:04:56.637Z,28.29
2023-02-21T16:07:29.481Z,28.26
2023-02-21T16:10:07.589Z,28.24
2023-02-21T16:12:41.072Z,28.18
2023-02-21T16:15:29.821Z,28.12
2023-02-21T16:18:05.063Z,28.11
2023-02-21T16:20:35.185Z,28.10
2023-02-21T16:23:30.758Z,28.06
2023-02-21T16:26:19.899Z,28.04
2023-02-21T16:28:50.259Z,27.98
2023-02-21T16:31:31.225Z,27.97
2023-02-21T16:34:04.507Z,27.98
2023-02-21T16:36:41.982Z,27.97
2023-02-21T16:39:13.549Z,27.98
2023-02-21T16:41:43.874Z,27.96
2023-02-21T16:44:25.792Z,27.93
2023-02-21T16:46:57.574Z,27.90
2023-02-21T16:49:29.529Z,27.86
2023-02-21T16:51:59.699Z,27.87
2023-02-21T16:54:29.680Z,27.85
2023-02-21T16:56:59.632Z,27.84
2023-02-21T16:59:29.682Z,27.81
2023-02-21T17:01:59.922Z,27.79
2023-02-21T17:04:31.125Z,27.79
2023-02-21T17:07:08.197Z,27.77
2023-02-21T17:09:42.340Z,27.75
2023-02-21T17:12:14.007Z,27.74
2023-02-21T17:14:44.192Z,27.75
2023-02-21T17:17:14.251Z,27.72
2023-02-21T17:19:44.546Z,27.68
2023-02-21T17:22:14.560Z,27.66
2023-02-21T17:24:44.666Z,27.62
2023-02-21T17:27:16.051Z,27.63
2023-02-21T17:29:46.230Z,27.61
2023-02-21T17:32:16.533Z,27.55
2023-02-21T17:34:46.720Z,27.57
2023-02-21T17:37:16.748Z,27.58
2023-02-21T17:39:46.854Z,27.56
2023-02-21T17:42:17.209Z,27.55
2023-02-21T17:44:48.731Z,27.54
2023-02-21T17:47:22.643Z,27.54
2023-02-21T17:49:55.842Z,27.53
2023-02-21T17:52:25.934Z,27.53
2023-02-21T17:54:56.350Z,27.50
2023-02-21T17:57:27.081Z,27.49
2023-02-21T17:59:57.156Z,27.48
2023-02-21T18:02:27.141Z,27.46
2023-02-21T18:05:00.353Z,27.44
2023-02-21T18:07:34.020Z,27.44
2023-02-21T18:10:05.736Z,27.43
2023-02-21T18:12:35.942Z,27.38
2023-02-21T18:15:08.309Z,27.39
2023-02-21T18:17:39.034Z,27.36
2023-02-21T18:20:11.012Z,27.36
2023-02-21T18:22:41.104Z,27.37
2023-02-21T18:25:11.590Z,27.35
2023-02-21T18:27:41.678Z,27.32
2023-02-21T18:30:12.386Z,27.29
2023-02-21T18:32:42.774Z,27.29
2023-02-21T18:35:12.764Z,27.27
2023-02-21T18:37:43.260Z,27.25
2023-02-21T18:40:15.247Z,27.21
2023-02-21T18:42:45.870Z,27.16
2023-02-21T18:45:15.852Z,27.19
2023-02-21T18:47:45.947Z,27.20
2023-02-21T18:50:16.584Z,27.21
2023-02-21T18:52:46.987Z,27.20
2023-02-21T18:55:18.944Z,27.22
2023-02-21T18:57:49.420Z,27.24
2023-02-21T19:00:20.620Z,27.17
2023-02-21T19:02:50.943Z,27.19
2023-02-21T19:05:22.687Z,27.18
2023-02-21T19:07:53.640Z,27.20
2023-02-21T19:10:25.276Z,27.17
2023-02-21T19:12:55.617Z,27.17
2023-02-21T19:15:25.604Z,27.15
2023-02-21T19:17:55.940Z,27.14
2023-02-21T19:20:26.037Z,27.13
2023-02-21T19:22:57.438Z,27.13
2023-02-21T19:25:29.149Z,27.12
2023-02-21T19:28:01.733Z,27.12
2023-02-21T19:30:35.647Z,27.12
2023-02-21T19:33:07.202Z,27.07
2023-02-21T19:35:39.041Z,27.08
2023-02-21T19:38:10.163Z,27.07
2023-02-21T19:40:40.132Z,27.07
2023-02-21T19:43:10.266Z,27.05
2023-02-21T19:45:40.343Z,27.04
2023-02-21T19:48:10.435Z,27.04
2023-02-21T19:50:41.257Z,27.04
2023-02-21T19:53:11.515Z,27.03
2023-02-21T19:55:41.723Z,27.02
2023-02-21T19:58:11.999Z,27.01
2023-02-21T20:00:45.546Z,27.00
2023-02-21T20:03:15.687Z,26.97
2023-02-21T20:05:45.812Z,26.98
2023-02-21T20:08:15.897Z,26.96
2023-02-21T20:10:45.906Z,26.94
2023-02-21T20:13:15.976Z,26.97
2023-02-21T20:15:46.357Z,26.97
2023-02-21T20:18:16.374Z,26.95
2023-02-21T20:20:47.110Z,26.94
2023-02-21T20:23:18.207Z,26.92
2023-02-21T20:25:48.223Z,26.93
2023-02-21T20:28:18.714Z,26.94
2023-02-21T20:30:48.775Z,26.91
2023-02-21T20:33:21.979Z,26.93
2023-02-21T20:35:52.669Z,26.93
2023-02-21T20:38:22.917Z,26.93
2023-02-21T20:40:53.000Z,26.91
2023-02-21T20:43:22.992Z,26.90
2023-02-21T20:45:53.262Z,26.89
2023-02-21T20:48:26.867Z,26.87
2023-02-21T20:50:56.914Z,26.85
2023-02-21T20:53:27.002Z,26.84
2023-02-21T20:55:57.352Z,26.82
2023-02-21T20:58:27.357Z,26.82
2023-02-21T21:00:57.374Z,26.80
2023-02-21T21:03:30.806Z,26.79
2023-02-21T21:06:00.770Z,26.77
2023-02-21T21:08:30.848Z,26.77
2023-02-21T21:11:00.995Z,26.82
2023-02-21T21:13:31.204Z,26.89
2023-02-21T21:16:01.239Z,26.98
2023-02-21T21:18:31.841Z,27.06
2023-02-21T21:21:03.589Z,27.12
2023-02-21T21:23:34.020Z,27.15
2023-02-21T21:26:06.630Z,27.15
2023-02-21T21:28:37.737Z,27.08
2023-02-21T21:31:10.298Z,27.04
2023-02-21T21:33:41.318Z,27.02
2023-02-21T21:36:12.416Z,27.00
2023-02-21T21:38:43.569Z,26.98
2023-02-21T21:41:16.844Z,26.93
2023-02-21T21:43:47.741Z,26.90
2023-02-21T21:46:17.890Z,26.89
2023-02-21T21:48:47.992Z,26.89
2023-02-21T21:51:18.552Z,26.86
2023-02-21T21:53:48.716Z,26.82
2023-02-21T21:56:23.861Z,26.80
2023-02-21T21:58:53.974Z,26.76
2023-02-21T22:01:23.979Z,26.78
2023-02-21T22:03:54.013Z,26.85
2023-02-21T22:06:24.566Z,26.92
2023-02-21T22:08:57.436Z,26.98
2023-02-21T22:11:27.599Z,27.04
2023-02-21T22:13:58.027Z,27.08
2023-02-21T22:16:28.196Z,27.12
2023-02-21T22:18:58.200Z,27.16
2023-02-21T22:21:28.921Z,27.12
2023-02-21T22:23:59.125Z,27.08
2023-02-21T22:26:30.190Z,27.00
2023-02-21T22:29:00.639Z,26.94
2023-02-21T22:31:30.813Z,26.89
2023-02-21T22:34:03.491Z,26.86
2023-02-21T22:36:34.263Z,26.86
2023-02-21T22:39:10.952Z,26.91
2023-02-21T22:41:41.319Z,26.98
2023-02-21T22:44:14.002Z,27.03
2023-02-21T22:46:45.391Z,27.07
2023-02-21T22:49:18.624Z,27.11
2023-02-21T22:51:48.709Z,27.15
2023-02-21T22:54:18.705Z,27.13
2023-02-21T22:56:56.238Z,26.66
2023-02-21T22:59:27.362Z,26.98
2023-02-21T23:01:59.888Z,26.98
2023-02-21T23:04:30.230Z,27.00
2023-02-21T23:07:00.899Z,27.09
2023-02-21T23:09:31.644Z,27.15
2023-02-21T23:12:02.289Z,27.19
2023-02-21T23:14:38.342Z,27.23
2023-02-21T23:17:10.909Z,27.29
2023-02-21T23:19:41.271Z,27.32
2023-02-21T23:22:11.626Z,27.34
2023-02-21T23:24:44.910Z,27.39
2023-02-21T23:27:14.905Z,27.43
2023-02-21T23:29:44.938Z,27.48
2023-02-21T23:32:15.221Z,27.50
2023-02-21T23:34:51.897Z,27.57
2023-02-21T23:37:21.918Z,27.59
2023-02-21T23:39:51.982Z,27.66
2023-02-21T23:42:21.947Z,27.69
2023-02-21T23:44:52.372Z,27.74
2023-02-21T23:47:23.010Z,27.75
2023-02-21T23:49:53.533Z,27.80
2023-02-21T23:52:24.248Z,27.80
2023-02-21T23:54:56.851Z,27.88
2023-02-21T23:57:26.944Z,27.22
2023-02-21T23:59:56.980Z,27.95
